createdAt,value
2019-02-06T00:02:00.837Z,100464.45
2019-02-06T00:04:32.874Z,100459.27
2019-02-06T00:07:03.743Z,100460.59
2019-02-06T00:09:34.729Z,100464.41
2019-02-06T00:12:05.556Z,100458.05
2019-02-06T00:14:36.801Z,100457.31
2019-02-06T00:17:08.102Z,100452.00
2019-02-06T00:19:39.226Z,100456.44
2019-02-06T00:22:11.122Z,100456.44
2019-02-06T00:24:42.026Z,100454.55
2019-02-06T00:27:12.925Z,100457.19
2019-02-06T00:29:44.197Z,100451.52
2019-02-06T00:32:15.262Z,100460.89
2019-02-06T00:34:46.474Z,100454.76
2019-02-06T00:37:17.351Z,100449.70
2019-02-06T00:39:49.365Z,100449.09
2019-02-06T00:42:20.457Z,100448.13
2019-02-06T00:44:51.469Z,100453.33
2019-02-06T00:47:22.250Z,100448.15
2019-02-06T00:49:53.309Z,100443.37
2019-02-06T00:52:24.116Z,100446.74
2019-02-06T00:54:55.209Z,100445.28
2019-02-06T00:57:26.111Z,100445.11
2019-02-06T00:59:58.510Z,100446.28
2019-02-06T01:02:29.601Z,100452.07
2019-02-06T01:05:00.602Z,100446.05
2019-02-06T01:07:31.408Z,100446.05
2019-02-06T01:10:03.276Z,100446.64
2019-02-06T01:12:34.106Z,100442.89
2019-02-06T01:15:05.466Z,100449.99
2019-02-06T01:17:36.526Z,100453.30
2019-02-06T01:20:08.186Z,100449.08
2019-02-06T01:22:39.271Z,100450.66
2019-02-06T01:25:11.894Z,100448.43
2019-02-06T01:27:42.788Z,100450.48
2019-02-06T01:30:17.280Z,100457.94
2019-02-06T01:32:48.150Z,100452.16
2019-02-06T01:35:19.469Z,100459.49
2019-02-06T01:37:50.425Z,100455.19
2019-02-06T01:40:21.510Z,100451.74
2019-02-06T01:42:52.413Z,100456.41
2019-02-06T01:45:23.470Z,100456.68
2019-02-06T01:47:54.301Z,100459.12
2019-02-06T01:50:25.311Z,100461.99
2019-02-06T01:52:56.081Z,100461.80
2019-02-06T01:55:27.253Z,100465.60
2019-02-06T01:57:58.183Z,100466.80
2019-02-06T02:00:29.387Z,100464.56
2019-02-06T02:03:00.452Z,100465.30
2019-02-06T02:05:31.504Z,100464.48
2019-02-06T02:08:02.406Z,100466.42
2019-02-06T02:10:33.592Z,100459.70
2019-02-06T02:13:05.096Z,100456.56
2019-02-06T02:15:36.305Z,100459.12
2019-02-06T02:18:07.618Z,100463.16
2019-02-06T02:20:38.509Z,100450.89
2019-02-06T02:23:09.476Z,100453.80
2019-02-06T02:25:40.519Z,100450.81
2019-02-06T02:28:11.468Z,100452.53
2019-02-06T02:30:48.849Z,100448.02
2019-02-06T02:33:19.793Z,100453.06
2019-02-06T02:35:51.889Z,100453.06
2019-02-06T02:38:22.797Z,100442.74
2019-02-06T02:40:54.189Z,100442.44
2019-02-06T02:43:25.079Z,100440.53
2019-02-06T02:45:56.549Z,100435.60
2019-02-06T02:48:27.368Z,100433.43
2019-02-06T02:50:58.265Z,100427.42
2019-02-06T02:53:29.059Z,100427.25
2019-02-06T02:56:00.139Z,100428.08
2019-02-06T02:58:31.018Z,100429.78
2019-02-06T03:01:20.018Z,100424.89
2019-02-06T03:04:10.171Z,100418.26
2019-02-06T03:06:42.764Z,100417.48
2019-02-06T03:09:14.105Z,100409.75
2019-02-06T03:11:45.110Z,100414.18
2019-02-06T03:14:16.170Z,100408.63
2019-02-06T03:16:47.473Z,100408.44
2019-02-06T03:19:18.269Z,100405.02
2019-02-06T03:21:49.271Z,100405.02
2019-02-06T03:24:20.237Z,100402.63
2019-02-06T03:26:51.156Z,100397.71
2019-02-06T03:29:22.111Z,100395.97
2019-02-06T03:31:53.138Z,100404.77
2019-02-06T03:34:24.007Z,100407.05
2019-02-06T03:36:54.998Z,100407.05
2019-02-06T03:39:25.781Z,100404.84
2019-02-06T03:41:56.759Z,100404.84
2019-02-06T03:44:27.644Z,100398.83
2019-02-06T03:46:58.548Z,100398.83
2019-02-06T03:49:29.421Z,100411.23
2019-02-06T03:52:01.691Z,100404.53
2019-02-06T03:54:32.844Z,100411.07
2019-02-06T03:57:03.735Z,100408.21
2019-02-06T03:59:34.607Z,100397.16
2019-02-06T04:02:05.685Z,100406.89
2019-02-06T04:04:36.602Z,100406.33
2019-02-06T04:07:07.508Z,100406.33
2019-02-06T04:09:38.379Z,100405.86
2019-02-06T04:12:10.071Z,100415.28
2019-02-06T04:14:40.955Z,100415.28
2019-02-06T04:17:11.770Z,100417.97
2019-02-06T04:19:42.640Z,100412.65
2019-02-06T04:22:13.654Z,100412.65
2019-02-06T04:24:44.727Z,100406.17
2019-02-06T04:27:15.907Z,100416.66
2019-02-06T04:29:46.895Z,100414.08
2019-02-06T04:32:18.186Z,100414.08
2019-02-06T04:34:49.185Z,100418.02
2019-02-06T04:37:20.177Z,100427.02
2019-02-06T04:39:50.954Z,100425.47
2019-02-06T04:42:22.671Z,100425.47
2019-02-06T04:44:53.644Z,100428.41
2019-02-06T04:47:24.955Z,100431.20
2019-02-06T04:49:55.759Z,100430.86
2019-02-06T04:52:26.801Z,100430.86
2019-02-06T04:54:57.637Z,100431.56
2019-02-06T04:57:28.688Z,100431.56
2019-02-06T04:59:59.694Z,100421.52
2019-02-06T05:02:30.682Z,100421.52
2019-02-06T05:05:01.470Z,100410.34
2019-02-06T05:07:32.457Z,100416.60
2019-02-06T05:10:03.361Z,100411.80
2019-02-06T05:12:35.589Z,100411.80
2019-02-06T05:15:06.809Z,100414.43
2019-02-06T05:17:37.922Z,100421.23
2019-02-06T05:20:29.449Z,100409.05
2019-02-06T05:23:00.476Z,100409.05
2019-02-06T05:25:31.512Z,100424.27
2019-02-06T05:28:02.345Z,100424.27
2019-02-06T05:30:33.297Z,100413.80
2019-02-06T05:33:04.283Z,100413.80
2019-02-06T05:35:35.366Z,100424.05
2019-02-06T05:38:06.570Z,100427.25
2019-02-06T05:40:37.353Z,100429.78
2019-02-06T05:43:08.338Z,100428.80
2019-02-06T05:45:39.220Z,100427.88
2019-02-06T05:48:09.958Z,100427.88
2019-02-06T05:50:40.794Z,100422.50
2019-02-06T05:53:11.977Z,100422.50
2019-02-06T05:55:42.888Z,100419.50
2019-02-06T05:58:13.935Z,100420.14
2019-02-06T06:00:47.241Z,100413.05
2019-02-06T06:03:18.217Z,100423.81
2019-02-06T06:05:49.079Z,100424.90
2019-02-06T06:08:20.003Z,100424.90
2019-02-06T06:10:51.065Z,100416.36
2019-02-06T06:13:22.087Z,100423.45
2019-02-06T06:15:53.042Z,100423.45
2019-02-06T06:18:24.063Z,100436.38
2019-02-06T06:20:55.142Z,100436.38
2019-02-06T06:23:26.212Z,100436.23
2019-02-06T06:25:57.167Z,100431.29
2019-02-06T06:28:28.204Z,100431.29
2019-02-06T06:30:59.101Z,100424.95
2019-02-06T06:33:30.386Z,100416.01
2019-02-06T06:36:01.267Z,100414.75
2019-02-06T06:38:33.180Z,100414.75
2019-02-06T06:41:04.168Z,100421.06
2019-02-06T06:43:35.165Z,100430.72
2019-02-06T06:46:06.245Z,100430.72
2019-02-06T06:48:37.447Z,100419.33
2019-02-06T06:51:08.229Z,100420.02
2019-02-06T06:53:39.237Z,100433.80
2019-02-06T06:56:10.114Z,100436.56
2019-02-06T06:58:41.101Z,100432.61
2019-02-06T07:01:12.421Z,100436.67
2019-02-06T07:03:43.296Z,100436.67
2019-02-06T07:06:14.165Z,100432.69
2019-02-06T07:08:45.358Z,100440.27
2019-02-06T07:11:16.167Z,100440.27
2019-02-06T07:13:47.258Z,100444.89
2019-02-06T07:16:18.134Z,100447.48
2019-02-06T07:18:49.025Z,100449.61
2019-02-06T07:21:19.912Z,100449.97
2019-02-06T07:23:50.998Z,100459.14
2019-02-06T07:26:21.811Z,100459.14
2019-02-06T07:28:52.861Z,100450.67
2019-02-06T07:31:23.765Z,100451.17
2019-02-06T07:33:54.859Z,100451.17
2019-02-06T07:36:25.760Z,100458.11
2019-02-06T07:38:57.040Z,100458.11
2019-02-06T07:41:28.229Z,100449.94
2019-02-06T07:43:59.150Z,100449.94
2019-02-06T07:46:30.046Z,100452.58
2019-02-06T07:49:01.012Z,100458.19
2019-02-06T07:51:31.787Z,100458.19
2019-02-06T07:54:02.787Z,100458.94
2019-02-06T07:56:33.562Z,100453.14
2019-02-06T07:59:04.742Z,100453.14
2019-02-06T08:01:35.657Z,100461.91
2019-02-06T08:04:06.810Z,100469.59
2019-02-06T08:06:37.632Z,100465.36
2019-02-06T08:09:10.261Z,100467.29
2019-02-06T08:11:41.137Z,100472.62
2019-02-06T08:14:12.235Z,100473.71
2019-02-06T08:16:43.032Z,100464.84
2019-02-06T08:19:14.047Z,100464.84
2019-02-06T08:21:45.297Z,100457.89
2019-02-06T08:24:16.272Z,100460.69
2019-02-06T08:26:47.174Z,100460.35
2019-02-06T08:29:18.275Z,100456.56
2019-02-06T08:31:49.074Z,100450.19
2019-02-06T08:34:20.059Z,100450.98
2019-02-06T08:36:50.954Z,100445.98
2019-02-06T08:39:22.684Z,100447.81
2019-02-06T08:41:53.625Z,100450.92
2019-02-06T08:44:24.447Z,100449.42
2019-02-06T08:46:55.521Z,100452.60
2019-02-06T08:49:26.412Z,100452.55
2019-02-06T08:51:57.180Z,100453.80
2019-02-06T08:54:28.336Z,100445.79
2019-02-06T08:56:59.285Z,100440.81
2019-02-06T08:59:30.265Z,100434.00
2019-02-06T09:02:01.561Z,100438.19
2019-02-06T09:04:32.447Z,100445.58
2019-02-06T09:07:03.325Z,100442.64
2019-02-06T09:09:34.405Z,100434.88
2019-02-06T09:12:05.302Z,100433.47
2019-02-06T09:14:36.710Z,100439.98
2019-02-06T09:17:07.708Z,100437.72
2019-02-06T09:19:38.696Z,100439.66
2019-02-06T09:22:09.589Z,100434.86
2019-02-06T09:24:40.648Z,100431.72
2019-02-06T09:27:11.651Z,100431.74
2019-02-06T09:29:42.758Z,100429.83
2019-02-06T09:32:13.633Z,100432.95
2019-02-06T09:34:44.574Z,100428.38
2019-02-06T09:37:15.421Z,100433.45
2019-02-06T09:39:46.326Z,100436.10
2019-02-06T09:42:17.202Z,100426.84
2019-02-06T09:44:48.193Z,100427.64
2019-02-06T09:47:19.157Z,100433.31
2019-02-06T09:49:50.090Z,100422.22
2019-02-06T09:52:20.936Z,100424.27
2019-02-06T09:54:51.827Z,100425.36
2019-02-06T09:57:23.030Z,100426.78
2019-02-06T09:59:54.106Z,100423.39
2019-02-06T10:02:26.015Z,100426.01
2019-02-06T10:04:57.017Z,100417.19
2019-02-06T10:07:27.893Z,100424.41
2019-02-06T10:09:59.290Z,100415.11
2019-02-06T10:12:30.105Z,100416.97
2019-02-06T10:15:01.085Z,100414.19
2019-02-06T10:17:31.957Z,100408.50
2019-02-06T10:20:02.951Z,100405.41
2019-02-06T10:22:33.749Z,100400.55
2019-02-06T10:25:05.420Z,100395.80
2019-02-06T10:27:36.419Z,100390.97
2019-02-06T10:30:09.174Z,100384.50
2019-02-06T10:32:39.965Z,100387.43
2019-02-06T10:35:11.114Z,100387.05
2019-02-06T10:37:42.023Z,100386.62
2019-02-06T10:40:13.144Z,100386.75
2019-02-06T10:42:44.012Z,100386.95
2019-02-06T10:45:15.495Z,100384.78
2019-02-06T10:47:47.621Z,100379.75
2019-02-06T10:50:21.271Z,100365.73
2019-02-06T10:52:52.180Z,100368.77
2019-02-06T10:55:23.365Z,100367.43
2019-02-06T10:57:54.261Z,100360.49
2019-02-06T11:00:31.500Z,100352.61
2019-02-06T11:03:02.384Z,100341.78
2019-02-06T11:05:33.277Z,100342.16
2019-02-06T11:08:04.344Z,100336.64
2019-02-06T11:10:35.599Z,100325.26
2019-02-06T11:13:07.032Z,100326.93
2019-02-06T11:15:38.364Z,100319.81
2019-02-06T11:18:09.435Z,100313.02
2019-02-06T11:20:40.747Z,100310.48
2019-02-06T11:23:11.729Z,100305.72
2019-02-06T11:25:42.834Z,100300.47
2019-02-06T11:28:14.209Z,100296.65
2019-02-06T11:30:45.402Z,100298.11
2019-02-06T11:33:16.312Z,100292.80
2019-02-06T11:35:47.298Z,100284.87
2019-02-06T11:38:18.285Z,100279.11
2019-02-06T11:40:49.297Z,100275.50
2019-02-06T11:43:20.360Z,100270.01
2019-02-06T11:45:51.469Z,100262.97
2019-02-06T11:48:22.546Z,100265.90
2019-02-06T11:50:53.625Z,100252.73
2019-02-06T11:53:26.594Z,100246.45
2019-02-06T11:55:58.229Z,100246.20
2019-02-06T11:58:29.351Z,100240.72
2019-02-06T12:01:22.638Z,100230.66
2019-02-06T12:03:54.629Z,100236.67
2019-02-06T12:06:26.310Z,100233.45
2019-02-06T12:08:57.213Z,100223.70
2019-02-06T12:11:28.196Z,100220.72
2019-02-06T12:13:59.084Z,100212.30
2019-02-06T12:16:30.264Z,100211.23
2019-02-06T12:19:01.266Z,100210.80
2019-02-06T12:21:32.371Z,100202.52
2019-02-06T12:24:03.348Z,100201.84
2019-02-06T12:26:34.395Z,100200.95
2019-02-06T12:29:05.332Z,100197.33
2019-02-06T12:31:36.624Z,100193.33
2019-02-06T12:34:07.615Z,100187.60
2019-02-06T12:36:38.608Z,100191.11
2019-02-06T12:39:11.026Z,100185.83
2019-02-06T12:41:42.417Z,100181.09
2019-02-06T12:44:13.303Z,100176.59
2019-02-06T12:46:44.620Z,100174.94
2019-02-06T12:49:15.487Z,100173.93
2019-02-06T12:51:46.481Z,100175.27
2019-02-06T12:54:17.363Z,100173.64
2019-02-06T12:56:48.277Z,100164.73
2019-02-06T12:59:19.150Z,100166.65
2019-02-06T13:01:50.042Z,100160.34
2019-02-06T13:04:20.905Z,100153.89
2019-02-06T13:06:51.883Z,100151.23
2019-02-06T13:09:22.701Z,100149.05
2019-02-06T13:11:53.700Z,100141.26
2019-02-06T13:14:24.865Z,100143.94
2019-02-06T13:16:55.968Z,100135.93
2019-02-06T13:19:26.848Z,100130.23
2019-02-06T13:21:58.203Z,100128.44
2019-02-06T13:24:29.077Z,100126.97
2019-02-06T13:27:00.132Z,100122.14
2019-02-06T13:29:31.018Z,100120.83
2019-02-06T13:32:02.110Z,100118.69
2019-02-06T13:34:32.911Z,100116.52
2019-02-06T13:37:04.179Z,100114.90
2019-02-06T13:39:34.991Z,100102.74
2019-02-06T13:42:06.498Z,100108.77
2019-02-06T13:44:37.264Z,100099.41
2019-02-06T13:47:08.252Z,100094.60
2019-02-06T13:49:39.040Z,100086.92
2019-02-06T13:52:10.149Z,100081.26
2019-02-06T13:54:41.240Z,100074.58
2019-02-06T13:57:12.413Z,100068.23
2019-02-06T13:59:43.197Z,100065.39
2019-02-06T14:02:14.212Z,100053.06
2019-02-06T14:04:45.276Z,100052.23
2019-02-06T14:07:16.319Z,100046.89
2019-02-06T14:09:47.176Z,100045.22
2019-02-06T14:12:18.168Z,100047.88
2019-02-06T14:14:48.959Z,100036.87
2019-02-06T14:17:19.840Z,100040.21
2019-02-06T14:19:50.604Z,100035.88
2019-02-06T14:22:21.497Z,100033.53
2019-02-06T14:25:11.340Z,100027.34
2019-02-06T14:27:54.434Z,100024.31
2019-02-06T14:30:48.241Z,100021.47
2019-02-06T14:34:15.280Z,100020.77
2019-02-06T14:37:21.162Z,100021.14
2019-02-06T14:40:52.188Z,100023.49
2019-02-06T14:44:15.760Z,100023.81
2019-02-06T14:47:29.668Z,100020.81
2019-02-06T14:50:50.313Z,100016.48
2019-02-06T14:53:50.027Z,100015.33
2019-02-06T14:57:05.251Z,100011.82
2019-02-06T15:00:05.016Z,100017.16
2019-02-06T15:03:15.887Z,100013.16
2019-02-06T15:06:40.180Z,100015.34
2019-02-06T15:09:47.367Z,100017.68
2019-02-06T15:12:46.737Z,100022.83
2019-02-06T15:15:30.592Z,100015.92
2019-02-06T15:18:36.447Z,100017.43
2019-02-06T15:21:53.809Z,100013.20
2019-02-06T15:24:54.503Z,100011.15
2019-02-06T15:28:08.174Z,100017.24
2019-02-06T15:31:38.200Z,100019.70
2019-02-06T15:34:36.891Z,100011.23
2019-02-06T15:37:41.592Z,100008.19
2019-02-06T15:41:02.942Z,100002.96
2019-02-06T15:44:00.041Z,100007.21
2019-02-06T15:47:03.397Z,100000.77
2019-02-06T15:50:26.705Z,99995.89
2019-02-06T15:53:39.377Z,99997.34
2019-02-06T15:56:53.184Z,99986.30
2019-02-06T16:00:20.578Z,99989.77
2019-02-06T16:03:52.857Z,99984.56
2019-02-06T16:06:53.625Z,99974.35
2019-02-06T16:10:10.338Z,99968.66
2019-02-06T16:13:22.510Z,99962.45
2019-02-06T16:16:21.323Z,99964.55
2019-02-06T16:19:30.127Z,99956.23
2019-02-06T16:22:20.319Z,99950.46
2019-02-06T16:25:12.555Z,99956.84
2019-02-06T16:28:11.377Z,99953.88
2019-02-06T16:31:30.948Z,99954.19
2019-02-06T16:34:42.315Z,99948.67
2019-02-06T16:37:44.087Z,99946.43
2019-02-06T16:40:39.153Z,99952.14
2019-02-06T16:43:37.050Z,99953.67
2019-02-06T16:46:47.208Z,99951.28
2019-02-06T16:49:44.260Z,99954.45
2019-02-06T16:53:23.395Z,99942.67
2019-02-06T16:56:49.529Z,99945.15
2019-02-06T17:00:06.346Z,99933.63
2019-02-06T17:03:21.234Z,99936.05
2019-02-06T17:06:15.764Z,99936.28
2019-02-06T17:09:40.815Z,99934.56
2019-02-06T17:13:07.543Z,99939.34
2019-02-06T17:16:49.486Z,99936.09
2019-02-06T17:20:09.310Z,99929.06
2019-02-06T17:23:17.046Z,99925.72
2019-02-06T17:26:34.244Z,99918.38
2019-02-06T17:29:35.315Z,99917.69
2019-02-06T17:32:35.198Z,99912.63
2019-02-06T17:35:20.320Z,99901.11
2019-02-06T17:38:24.421Z,99911.27
2019-02-06T17:41:25.979Z,99910.73
2019-02-06T17:44:23.334Z,99908.80
2019-02-06T17:47:33.812Z,99908.80
2019-02-06T17:51:02.082Z,99902.41
2019-02-06T17:54:16.337Z,99904.25
2019-02-06T17:56:47.511Z,99907.30
2019-02-06T17:59:18.521Z,99905.97
2019-02-06T18:01:54.733Z,99899.12
2019-02-06T18:04:38.535Z,99899.97
2019-02-06T18:07:09.712Z,99889.83
2019-02-06T18:09:41.753Z,99889.86
2019-02-06T18:12:12.812Z,99895.41
2019-02-06T18:14:43.724Z,99894.37
2019-02-06T18:17:14.827Z,99895.94
2019-02-06T18:19:45.500Z,99890.39
2019-02-06T18:22:17.210Z,99893.94
2019-02-06T18:24:48.095Z,99896.74
2019-02-06T18:27:20.120Z,99891.25
2019-02-06T18:29:50.984Z,99890.95
2019-02-06T18:32:21.991Z,99885.95
2019-02-06T18:34:52.755Z,99891.48
2019-02-06T18:37:23.743Z,99891.41
2019-02-06T18:39:54.752Z,99884.22
2019-02-06T18:42:25.746Z,99888.97
2019-02-06T18:44:56.511Z,99883.38
2019-02-06T18:47:27.774Z,99880.73
2019-02-06T18:49:58.687Z,99881.86
2019-02-06T18:52:32.347Z,99878.36
2019-02-06T18:55:03.353Z,99880.20
2019-02-06T18:57:34.339Z,99882.27
2019-02-06T19:00:07.821Z,99877.66
2019-02-06T19:02:38.983Z,99883.87
2019-02-06T19:05:11.230Z,99877.66
2019-02-06T19:07:42.305Z,99875.63
2019-02-06T19:10:14.503Z,99873.27
2019-02-06T19:12:47.969Z,99879.19
2019-02-06T19:15:18.964Z,99875.84
2019-02-06T19:17:50.639Z,99879.81
2019-02-06T19:20:21.518Z,99882.97
2019-02-06T19:22:52.615Z,99884.63
2019-02-06T19:25:24.015Z,99881.14
2019-02-06T19:27:56.291Z,99878.48
2019-02-06T19:30:30.718Z,99877.45
2019-02-06T19:33:02.650Z,99878.84
2019-02-06T19:35:33.527Z,99875.64
2019-02-06T19:38:04.621Z,99877.24
2019-02-06T19:40:35.692Z,99865.50
2019-02-06T19:43:07.778Z,99866.56
2019-02-06T19:45:39.335Z,99866.77
2019-02-06T19:48:16.302Z,99865.98
2019-02-06T19:50:43.238Z,99876.02
2019-02-06T19:53:14.258Z,99862.22
2019-02-06T19:55:45.232Z,99863.87
2019-02-06T19:58:16.412Z,99862.05
2019-02-06T20:00:47.606Z,99855.96
2019-02-06T20:03:18.723Z,99854.64
2019-02-06T20:05:49.600Z,99850.39
2019-02-06T20:08:21.001Z,99853.88
2019-02-06T20:10:51.870Z,99850.44
2019-02-06T20:13:22.869Z,99848.27
2019-02-06T20:15:54.175Z,99846.75
2019-02-06T20:18:25.073Z,99845.62
2019-02-06T20:20:55.930Z,99847.88
2019-02-06T20:23:26.984Z,99846.47
2019-02-06T20:25:58.135Z,99844.16
2019-02-06T20:28:29.309Z,99837.12
2019-02-06T20:31:00.791Z,99835.06
2019-02-06T20:33:31.917Z,99842.48
2019-02-06T20:36:02.801Z,99838.41
2019-02-06T20:38:34.044Z,99836.52
2019-02-06T20:41:05.095Z,99831.94
2019-02-06T20:43:36.081Z,99834.24
2019-02-06T20:46:07.364Z,99832.30
2019-02-06T20:48:38.676Z,99830.70
2019-02-06T20:51:27.481Z,99824.00
2019-02-06T20:53:58.486Z,99826.36
2019-02-06T20:56:29.813Z,99829.24
2019-02-06T20:59:00.872Z,99827.69
2019-02-06T21:01:31.760Z,99821.47
2019-02-06T21:04:02.812Z,99815.98
2019-02-06T21:06:33.638Z,99816.41
2019-02-06T21:09:05.408Z,99819.62
2019-02-06T21:11:37.953Z,99811.34
2019-02-06T21:14:09.335Z,99809.31
2019-02-06T21:16:40.257Z,99807.20
2019-02-06T21:19:11.197Z,99811.26
2019-02-06T21:21:42.009Z,99805.69
2019-02-06T21:24:13.209Z,99811.96
2019-02-06T21:26:44.576Z,99808.05
2019-02-06T21:29:16.595Z,99806.97
2019-02-06T21:31:47.518Z,99801.91
2019-02-06T21:34:18.558Z,99801.86
2019-02-06T21:36:49.712Z,99802.62
2019-02-06T21:39:20.772Z,99800.48
2019-02-06T21:41:51.492Z,99803.61
2019-02-06T21:44:22.373Z,99795.63
2019-02-06T21:46:53.245Z,99794.30
2019-02-06T21:49:24.229Z,99787.27
2019-02-06T21:51:55.037Z,99780.66
2019-02-06T21:54:25.937Z,99773.77
2019-02-06T21:56:56.914Z,99777.59
2019-02-06T21:59:27.942Z,99771.32
2019-02-06T22:01:58.902Z,99765.09
2019-02-06T22:04:31.498Z,99765.66
2019-02-06T22:07:02.287Z,99762.88
2019-02-06T22:09:33.232Z,99760.97
2019-02-06T22:12:04.079Z,99750.92
2019-02-06T22:14:35.372Z,99746.77
2019-02-06T22:17:06.661Z,99741.15
2019-02-06T22:19:37.668Z,99735.49
2019-02-06T22:22:08.454Z,99730.96
2019-02-06T22:24:39.424Z,99736.58
2019-02-06T22:27:10.212Z,99734.17
2019-02-06T22:29:41.495Z,99734.55
2019-02-06T22:32:12.304Z,99737.47
2019-02-06T22:34:43.283Z,99734.31
2019-02-06T22:37:14.069Z,99728.61
2019-02-06T22:39:45.148Z,99735.16
2019-02-06T22:42:16.266Z,99724.69
2019-02-06T22:44:47.369Z,99727.94
2019-02-06T22:47:18.225Z,99720.63
2019-02-06T22:49:49.116Z,99716.09
2019-02-06T22:52:22.862Z,99725.95
2019-02-06T22:54:52.965Z,99719.96
2019-02-06T22:57:23.825Z,99720.81
2019-02-06T22:59:54.769Z,99723.36
2019-02-06T23:02:25.719Z,99722.17
2019-02-06T23:04:56.620Z,99728.50
2019-02-06T23:07:27.681Z,99727.89
2019-02-06T23:09:58.785Z,99718.41
2019-02-06T23:12:29.589Z,99714.72
2019-02-06T23:15:00.570Z,99712.22
2019-02-06T23:17:31.539Z,99705.56
2019-02-06T23:20:02.729Z,99708.72
2019-02-06T23:22:34.060Z,99711.19
2019-02-06T23:25:06.119Z,99704.59
2019-02-06T23:27:37.033Z,99701.41
2019-02-06T23:30:08.542Z,99699.39
2019-02-06T23:32:39.548Z,99697.86
2019-02-06T23:35:10.618Z,99695.80
2019-02-06T23:37:41.605Z,99697.55
2019-02-06T23:40:12.723Z,99697.59
2019-02-06T23:42:43.855Z,99699.23
2019-02-06T23:45:15.264Z,99699.66
2019-02-06T23:47:46.508Z,99701.69
2019-02-06T23:50:17.416Z,99701.65
2019-02-06T23:52:48.274Z,99699.66
2019-02-06T23:55:19.155Z,99696.04
2019-02-06T23:57:50.060Z,99692.55
